sensor_id;sensor_type;location;lat;lon;timestamp;P1;durP1;ratioP1;P2;durP2;ratioP2
75021;SDS011;63583;49.976;20.182;2022-12-13T00:01:45;3.17;;;1.67;;
75021;SDS011;63583;49.976;20.182;2022-12-13T00:04:12;2.55;;;1.65;;
75021;SDS011;63583;49.976;20.182;2022-12-13T00:06:38;3.22;;;2.42;;
75021;SDS011;63583;49.976;20.182;2022-12-13T00:09:04;2.53;;;1.48;;
75021;SDS011;63583;49.976;20.182;2022-12-13T00:11:30;2.88;;;2.60;;
75021;SDS011;63583;49.976;20.182;2022-12-13T00:13:57;6.75;;;4.32;;
75021;SDS011;63583;49.976;20.182;2022-12-13T00:16:23;10.65;;;2.83;;
75021;SDS011;63583;49.976;20.182;2022-12-13T00:18:51;4.07;;;2.25;;
75021;SDS011;63583;49.976;20.182;2022-12-13T00:21:23;3.33;;;2.25;;
75021;SDS011;63583;49.976;20.182;2022-12-13T00:23:50;3.58;;;3.15;;
75021;SDS011;63583;49.976;20.182;2022-12-13T00:26:18;7.05;;;2.35;;
75021;SDS011;63583;49.976;20.182;2022-12-13T00:28:46;4.63;;;2.22;;
75021;SDS011;63583;49.976;20.182;2022-12-13T00:31:14;3.83;;;2.83;;
75021;SDS011;63583;49.976;20.182;2022-12-13T00:33:40;3.65;;;2.80;;
75021;SDS011;63583;49.976;20.182;2022-12-13T00:36:06;4.68;;;3.25;;
75021;SDS011;63583;49.976;20.182;2022-12-13T00:38:33;4.90;;;3.05;;
75021;SDS011;63583;49.976;20.182;2022-12-13T00:41:21;2.10;;;1.83;;
75021;SDS011;63583;49.976;20.182;2022-12-13T00:43:46;8.52;;;3.53;;
75021;SDS011;63583;49.976;20.182;2022-12-13T00:46:13;8.10;;;3.95;;
75021;SDS011;63583;49.976;20.182;2022-12-13T00:48:41;1.13;;;0.98;;
75021;SDS011;63583;49.976;20.182;2022-12-13T00:51:08;3.95;;;1.73;;
75021;SDS011;63583;49.976;20.182;2022-12-13T00:53:35;5.50;;;2.13;;
75021;SDS011;63583;49.976;20.182;2022-12-13T00:56:01;2.90;;;2.65;;
75021;SDS011;63583;49.976;20.182;2022-12-13T00:58:27;2.00;;;1.85;;
75021;SDS011;63583;49.976;20.182;2022-12-13T01:01:00;2.30;;;1.73;;
75021;SDS011;63583;49.976;20.182;2022-12-13T01:03:31;4.25;;;2.88;;
75021;SDS011;63583;49.976;20.182;2022-12-13T01:05:57;6.40;;;1.65;;
75021;SDS011;63583;49.976;20.182;2022-12-13T01:08:24;2.25;;;1.92;;
75021;SDS011;63583;49.976;20.182;2022-12-13T01:10:50;7.15;;;2.67;;
75021;SDS011;63583;49.976;20.182;2022-12-13T01:13:16;5.20;;;2.63;;
75021;SDS011;63583;49.976;20.182;2022-12-13T01:15:42;4.22;;;2.25;;
75021;SDS011;63583;49.976;20.182;2022-12-13T01:18:10;2.65;;;2.42;;
75021;SDS011;63583;49.976;20.182;2022-12-13T01:20:37;2.58;;;1.88;;
75021;SDS011;63583;49.976;20.182;2022-12-13T01:23:04;4.97;;;1.48;;
75021;SDS011;63583;49.976;20.182;2022-12-13T01:25:30;2.70;;;1.85;;
75021;SDS011;63583;49.976;20.182;2022-12-13T01:28:00;6.35;;;3.40;;
75021;SDS011;63583;49.976;20.182;2022-12-13T01:30:26;2.75;;;0.98;;
75021;SDS011;63583;49.976;20.182;2022-12-13T01:32:52;2.00;;;1.60;;
75021;SDS011;63583;49.976;20.182;2022-12-13T01:35:18;3.58;;;2.47;;
75021;SDS011;63583;49.976;20.182;2022-12-13T01:37:44;3.60;;;1.30;;
75021;SDS011;63583;49.976;20.182;2022-12-13T01:40:10;1.92;;;1.42;;
75021;SDS011;63583;49.976;20.182;2022-12-13T01:42:37;2.17;;;1.75;;
75021;SDS011;63583;49.976;20.182;2022-12-13T01:45:04;7.35;;;2.58;;
75021;SDS011;63583;49.976;20.182;2022-12-13T01:47:45;1.77;;;1.63;;
75021;SDS011;63583;49.976;20.182;2022-12-13T01:50:20;3.97;;;1.73;;
75021;SDS011;63583;49.976;20.182;2022-12-13T01:52:49;2.58;;;2.10;;
75021;SDS011;63583;49.976;20.182;2022-12-13T01:55:17;4.63;;;2.00;;
75021;SDS011;63583;49.976;20.182;2022-12-13T01:57:45;2.17;;;1.60;;
75021;SDS011;63583;49.976;20.182;2022-12-13T02:00:13;3.58;;;2.58;;
75021;SDS011;63583;49.976;20.182;2022-12-13T02:02:40;5.70;;;3.47;;
75021;SDS011;63583;49.976;20.182;2022-12-13T02:05:23;7.93;;;2.92;;
75021;SDS011;63583;49.976;20.182;2022-12-13T02:07:53;1.48;;;1.35;;
75021;SDS011;63583;49.976;20.182;2022-12-13T02:10:21;4.75;;;2.13;;
75021;SDS011;63583;49.976;20.182;2022-12-13T02:12:47;1.63;;;1.42;;
75021;SDS011;63583;49.976;20.182;2022-12-13T02:15:14;3.65;;;2.90;;
75021;SDS011;63583;49.976;20.182;2022-12-13T02:17:49;3.63;;;1.40;;
75021;SDS011;63583;49.976;20.182;2022-12-13T02:23:26;2.63;;;1.98;;
75021;SDS011;63583;49.976;20.182;2022-12-13T02:34:33;2.05;;;1.30;;
75021;SDS011;63583;49.976;20.182;2022-12-13T02:37:04;4.50;;;2.38;;
75021;SDS011;63583;49.976;20.182;2022-12-13T02:39:38;6.82;;;3.28;;
75021;SDS011;63583;49.976;20.182;2022-12-13T02:42:09;2.75;;;2.42;;
75021;SDS011;63583;49.976;20.182;2022-12-13T02:44:38;2.15;;;1.50;;
75021;SDS011;63583;49.976;20.182;2022-12-13T02:47:08;4.78;;;3.33;;
75021;SDS011;63583;49.976;20.182;2022-12-13T02:49:38;2.78;;;1.58;;
75021;SDS011;63583;49.976;20.182;2022-12-13T02:52:08;3.65;;;1.38;;
75021;SDS011;63583;49.976;20.182;2022-12-13T02:54:35;3.20;;;1.55;;
75021;SDS011;63583;49.976;20.182;2022-12-13T02:57:01;2.42;;;2.10;;
75021;SDS011;63583;49.976;20.182;2022-12-13T02:59:34;5.53;;;3.00;;
75021;SDS011;63583;49.976;20.182;2022-12-13T03:08:19;4.85;;;2.58;;
75021;SDS011;63583;49.976;20.182;2022-12-13T03:11:04;3.85;;;2.63;;
75021;SDS011;63583;49.976;20.182;2022-12-13T03:13:33;3.45;;;2.85;;
75021;SDS011;63583;49.976;20.182;2022-12-13T03:16:08;4.82;;;3.20;;
75021;SDS011;63583;49.976;20.182;2022-12-13T03:18:39;8.02;;;2.65;;
75021;SDS011;63583;49.976;20.182;2022-12-13T03:21:06;1.30;;;1.20;;
75021;SDS011;63583;49.976;20.182;2022-12-13T03:23:33;1.38;;;1.05;;
75021;SDS011;63583;49.976;20.182;2022-12-13T03:26:04;3.90;;;2.20;;
75021;SDS011;63583;49.976;20.182;2022-12-13T03:31:02;2.50;;;1.08;;
75021;SDS011;63583;49.976;20.182;2022-12-13T03:33:28;1.88;;;1.33;;
75021;SDS011;63583;49.976;20.182;2022-12-13T03:35:54;4.78;;;1.98;;
75021;SDS011;63583;49.976;20.182;2022-12-13T03:38:20;2.08;;;1.58;;
75021;SDS011;63583;49.976;20.182;2022-12-13T03:40:46;3.50;;;2.28;;
75021;SDS011;63583;49.976;20.182;2022-12-13T03:43:12;0.80;;;0.77;;
75021;SDS011;63583;49.976;20.182;2022-12-13T03:45:39;10.63;;;2.85;;
75021;SDS011;63583;49.976;20.182;2022-12-13T03:48:04;9.73;;;3.40;;
75021;SDS011;63583;49.976;20.182;2022-12-13T03:50:30;8.48;;;2.75;;
75021;SDS011;63583;49.976;20.182;2022-12-13T03:53:00;1.70;;;1.52;;
75021;SDS011;63583;49.976;20.182;2022-12-13T03:55:26;4.00;;;3.38;;
75021;SDS011;63583;49.976;20.182;2022-12-13T03:57:52;5.28;;;2.13;;
75021;SDS011;63583;49.976;20.182;2022-12-13T04:00:18;5.35;;;3.20;;
75021;SDS011;63583;49.976;20.182;2022-12-13T04:02:44;4.55;;;2.35;;
75021;SDS011;63583;49.976;20.182;2022-12-13T04:05:10;3.03;;;2.78;;
75021;SDS011;63583;49.976;20.182;2022-12-13T04:07:36;5.40;;;2.00;;
75021;SDS011;63583;49.976;20.182;2022-12-13T04:10:02;7.47;;;2.00;;
75021;SDS011;63583;49.976;20.182;2022-12-13T04:12:28;1.65;;;1.20;;
75021;SDS011;63583;49.976;20.182;2022-12-13T04:15:13;2.70;;;2.38;;
75021;SDS011;63583;49.976;20.182;2022-12-13T04:17:38;1.95;;;1.80;;
75021;SDS011;63583;49.976;20.182;2022-12-13T04:20:04;1.73;;;1.15;;
75021;SDS011;63583;49.976;20.182;2022-12-13T04:22:30;1.95;;;1.85;;
75021;SDS011;63583;49.976;20.182;2022-12-13T04:24:56;4.30;;;2.05;;
75021;SDS011;63583;49.976;20.182;2022-12-13T04:27:22;4.28;;;2.35;;
75021;SDS011;63583;49.976;20.182;2022-12-13T04:29:48;1.63;;;0.77;;
75021;SDS011;63583;49.976;20.182;2022-12-13T04:32:13;7.57;;;2.30;;
75021;SDS011;63583;49.976;20.182;2022-12-13T04:34:39;7.50;;;2.42;;
75021;SDS011;63583;49.976;20.182;2022-12-13T04:37:05;3.22;;;2.15;;
75021;SDS011;63583;49.976;20.182;2022-12-13T04:39:31;2.50;;;1.70;;
75021;SDS011;63583;49.976;20.182;2022-12-13T04:41:57;2.80;;;2.33;;
75021;SDS011;63583;49.976;20.182;2022-12-13T04:44:23;5.05;;;2.70;;
75021;SDS011;63583;49.976;20.182;2022-12-13T04:46:48;3.03;;;1.98;;
75021;SDS011;63583;49.976;20.182;2022-12-13T04:49:14;4.75;;;2.60;;
75021;SDS011;63583;49.976;20.182;2022-12-13T04:51:40;5.65;;;3.13;;
75021;SDS011;63583;49.976;20.182;2022-12-13T04:54:06;1.75;;;1.30;;
75021;SDS011;63583;49.976;20.182;2022-12-13T04:56:32;2.60;;;1.30;;
75021;SDS011;63583;49.976;20.182;2022-12-13T04:58:58;2.20;;;1.95;;
75021;SDS011;63583;49.976;20.182;2022-12-13T05:01:23;3.65;;;2.65;;
75021;SDS011;63583;49.976;20.182;2022-12-13T05:03:49;3.15;;;2.15;;
75021;SDS011;63583;49.976;20.182;2022-12-13T05:06:15;2.42;;;2.22;;
75021;SDS011;63583;49.976;20.182;2022-12-13T05:08:41;1.50;;;1.40;;
75021;SDS011;63583;49.976;20.182;2022-12-13T05:11:08;1.98;;;1.58;;
75021;SDS011;63583;49.976;20.182;2022-12-13T05:13:35;2.85;;;1.85;;
75021;SDS011;63583;49.976;20.182;2022-12-13T05:16:02;5.55;;;2.50;;
75021;SDS011;63583;49.976;20.182;2022-12-13T05:18:30;1.80;;;1.65;;
75021;SDS011;63583;49.976;20.182;2022-12-13T05:21:00;3.10;;;2.35;;
75021;SDS011;63583;49.976;20.182;2022-12-13T05:23:30;2.15;;;1.95;;
75021;SDS011;63583;49.976;20.182;2022-12-13T05:25:57;1.48;;;1.33;;
75021;SDS011;63583;49.976;20.182;2022-12-13T05:28:23;3.55;;;2.97;;
75021;SDS011;63583;49.976;20.182;2022-12-13T05:30:56;1.23;;;0.95;;
75021;SDS011;63583;49.976;20.182;2022-12-13T05:33:24;1.95;;;1.48;;
75021;SDS011;63583;49.976;20.182;2022-12-13T05:35:51;3.72;;;1.95;;
75021;SDS011;63583;49.976;20.182;2022-12-13T05:38:18;2.33;;;1.92;;
75021;SDS011;63583;49.976;20.182;2022-12-13T05:40:43;2.08;;;1.45;;
75021;SDS011;63583;49.976;20.182;2022-12-13T05:43:12;4.25;;;1.98;;
75021;SDS011;63583;49.976;20.182;2022-12-13T05:45:38;2.17;;;1.23;;
75021;SDS011;63583;49.976;20.182;2022-12-13T05:48:04;4.80;;;2.60;;
75021;SDS011;63583;49.976;20.182;2022-12-13T05:50:30;2.30;;;2.05;;
75021;SDS011;63583;49.976;20.182;2022-12-13T05:52:55;3.83;;;2.05;;
75021;SDS011;63583;49.976;20.182;2022-12-13T05:55:21;5.53;;;2.17;;
75021;SDS011;63583;49.976;20.182;2022-12-13T05:57:47;8.45;;;2.28;;
75021;SDS011;63583;49.976;20.182;2022-12-13T06:00:13;1.52;;;1.42;;
75021;SDS011;63583;49.976;20.182;2022-12-13T06:02:40;1.70;;;1.40;;
75021;SDS011;63583;49.976;20.182;2022-12-13T06:05:08;2.40;;;1.35;;
75021;SDS011;63583;49.976;20.182;2022-12-13T06:07:35;2.65;;;1.30;;
75021;SDS011;63583;49.976;20.182;2022-12-13T06:10:02;1.15;;;0.93;;
75021;SDS011;63583;49.976;20.182;2022-12-13T06:12:29;3.75;;;2.10;;
75021;SDS011;63583;49.976;20.182;2022-12-13T06:14:55;2.15;;;1.67;;
75021;SDS011;63583;49.976;20.182;2022-12-13T06:17:21;3.10;;;1.75;;
75021;SDS011;63583;49.976;20.182;2022-12-13T06:19:51;6.55;;;2.72;;
75021;SDS011;63583;49.976;20.182;2022-12-13T06:22:17;1.92;;;0.98;;
75021;SDS011;63583;49.976;20.182;2022-12-13T06:24:43;2.85;;;1.00;;
75021;SDS011;63583;49.976;20.182;2022-12-13T06:27:09;2.67;;;1.98;;
75021;SDS011;63583;49.976;20.182;2022-12-13T06:29:34;0.65;;;0.65;;
75021;SDS011;63583;49.976;20.182;2022-12-13T06:32:01;2.85;;;2.28;;
75021;SDS011;63583;49.976;20.182;2022-12-13T06:34:30;6.55;;;3.42;;
75021;SDS011;63583;49.976;20.182;2022-12-13T06:36:57;2.53;;;2.22;;
75021;SDS011;63583;49.976;20.182;2022-12-13T06:39:23;1.48;;;1.38;;
75021;SDS011;63583;49.976;20.182;2022-12-13T06:41:49;8.98;;;2.08;;
75021;SDS011;63583;49.976;20.182;2022-12-13T06:44:15;3.42;;;2.92;;
75021;SDS011;63583;49.976;20.182;2022-12-13T06:46:40;1.52;;;1.42;;
75021;SDS011;63583;49.976;20.182;2022-12-13T06:49:07;1.73;;;1.63;;
75021;SDS011;63583;49.976;20.182;2022-12-13T06:51:33;4.15;;;1.70;;
75021;SDS011;63583;49.976;20.182;2022-12-13T06:54:00;1.20;;;0.65;;
75021;SDS011;63583;49.976;20.182;2022-12-13T06:56:27;1.67;;;1.52;;
75021;SDS011;63583;49.976;20.182;2022-12-13T06:58:54;3.95;;;1.35;;
75021;SDS011;63583;49.976;20.182;2022-12-13T07:01:22;1.35;;;0.98;;
75021;SDS011;63583;49.976;20.182;2022-12-13T07:03:48;3.28;;;2.20;;
75021;SDS011;63583;49.976;20.182;2022-12-13T07:06:23;5.00;;;1.48;;
75021;SDS011;63583;49.976;20.182;2022-12-13T07:08:51;1.88;;;1.77;;
75021;SDS011;63583;49.976;20.182;2022-12-13T07:11:19;2.08;;;1.92;;
75021;SDS011;63583;49.976;20.182;2022-12-13T07:13:49;1.10;;;1.02;;
75021;SDS011;63583;49.976;20.182;2022-12-13T07:16:16;4.93;;;2.83;;
75021;SDS011;63583;49.976;20.182;2022-12-13T07:18:42;7.43;;;2.15;;
75021;SDS011;63583;49.976;20.182;2022-12-13T07:21:10;5.90;;;2.42;;
75021;SDS011;63583;49.976;20.182;2022-12-13T07:23:37;1.20;;;1.00;;
75021;SDS011;63583;49.976;20.182;2022-12-13T07:26:04;2.22;;;1.88;;
75021;SDS011;63583;49.976;20.182;2022-12-13T07:28:31;1.65;;;1.55;;
75021;SDS011;63583;49.976;20.182;2022-12-13T07:31:02;3.47;;;1.73;;
75021;SDS011;63583;49.976;20.182;2022-12-13T07:33:28;3.03;;;1.77;;
75021;SDS011;63583;49.976;20.182;2022-12-13T07:38:27;3.65;;;2.45;;
75021;SDS011;63583;49.976;20.182;2022-12-13T07:40:54;2.70;;;2.40;;
75021;SDS011;63583;49.976;20.182;2022-12-13T07:43:21;1.67;;;1.58;;
75021;SDS011;63583;49.976;20.182;2022-12-13T07:45:47;9.52;;;2.88;;
75021;SDS011;63583;49.976;20.182;2022-12-13T07:48:12;1.63;;;1.50;;
75021;SDS011;63583;49.976;20.182;2022-12-13T07:50:39;2.70;;;2.28;;
75021;SDS011;63583;49.976;20.182;2022-12-13T07:53:05;1.48;;;1.08;;
75021;SDS011;63583;49.976;20.182;2022-12-13T07:55:40;2.65;;;1.50;;
75021;SDS011;63583;49.976;20.182;2022-12-13T07:58:47;2.15;;;1.13;;
75021;SDS011;63583;49.976;20.182;2022-12-13T08:01:13;3.38;;;2.00;;
75021;SDS011;63583;49.976;20.182;2022-12-13T08:03:38;1.73;;;1.10;;
75021;SDS011;63583;49.976;20.182;2022-12-13T08:08:31;4.53;;;1.27;;
75021;SDS011;63583;49.976;20.182;2022-12-13T08:11:05;7.10;;;1.20;;
75021;SDS011;63583;49.976;20.182;2022-12-13T08:16:03;4.25;;;1.65;;
75021;SDS011;63583;49.976;20.182;2022-12-13T08:18:30;1.05;;;1.05;;
75021;SDS011;63583;49.976;20.182;2022-12-13T08:20:58;4.25;;;1.63;;
75021;SDS011;63583;49.976;20.182;2022-12-13T08:23:30;3.13;;;1.17;;
75021;SDS011;63583;49.976;20.182;2022-12-13T08:25:57;1.08;;;0.90;;
75021;SDS011;63583;49.976;20.182;2022-12-13T08:28:23;2.08;;;1.25;;
75021;SDS011;63583;49.976;20.182;2022-12-13T08:30:50;1.80;;;1.08;;
75021;SDS011;63583;49.976;20.182;2022-12-13T08:33:16;2.42;;;1.75;;
75021;SDS011;63583;49.976;20.182;2022-12-13T08:35:43;1.38;;;1.27;;
75021;SDS011;63583;49.976;20.182;2022-12-13T08:38:09;2.15;;;1.23;;
75021;SDS011;63583;49.976;20.182;2022-12-13T08:40:35;3.30;;;1.33;;
75021;SDS011;63583;49.976;20.182;2022-12-13T08:43:01;3.40;;;1.33;;
75021;SDS011;63583;49.976;20.182;2022-12-13T08:45:28;0.50;;;0.50;;
75021;SDS011;63583;49.976;20.182;2022-12-13T08:47:56;2.80;;;1.77;;
75021;SDS011;63583;49.976;20.182;2022-12-13T08:50:22;2.75;;;2.35;;
75021;SDS011;63583;49.976;20.182;2022-12-13T08:52:49;3.03;;;1.05;;
75021;SDS011;63583;49.976;20.182;2022-12-13T08:55:16;2.30;;;1.38;;
75021;SDS011;63583;49.976;20.182;2022-12-13T08:57:42;2.15;;;1.65;;
75021;SDS011;63583;49.976;20.182;2022-12-13T09:00:10;1.27;;;1.00;;
75021;SDS011;63583;49.976;20.182;2022-12-13T09:02:38;1.52;;;1.25;;
75021;SDS011;63583;49.976;20.182;2022-12-13T09:05:04;1.55;;;1.33;;
75021;SDS011;63583;49.976;20.182;2022-12-13T09:07:31;2.67;;;1.52;;
75021;SDS011;63583;49.976;20.182;2022-12-13T09:09:57;2.13;;;1.30;;
75021;SDS011;63583;49.976;20.182;2022-12-13T09:12:23;1.48;;;1.38;;
75021;SDS011;63583;49.976;20.182;2022-12-13T09:14:49;2.35;;;2.05;;
75021;SDS011;63583;49.976;20.182;2022-12-13T09:17:14;1.90;;;1.15;;
75021;SDS011;63583;49.976;20.182;2022-12-13T09:19:40;1.63;;;1.20;;
75021;SDS011;63583;49.976;20.182;2022-12-13T09:22:06;3.15;;;1.50;;
75021;SDS011;63583;49.976;20.182;2022-12-13T09:24:32;1.83;;;1.02;;
75021;SDS011;63583;49.976;20.182;2022-12-13T09:26:58;2.53;;;2.05;;
75021;SDS011;63583;49.976;20.182;2022-12-13T09:29:25;1.83;;;1.15;;
75021;SDS011;63583;49.976;20.182;2022-12-13T09:31:50;1.60;;;1.27;;
75021;SDS011;63583;49.976;20.182;2022-12-13T09:34:16;3.20;;;2.00;;
75021;SDS011;63583;49.976;20.182;2022-12-13T09:36:42;2.28;;;1.58;;
75021;SDS011;63583;49.976;20.182;2022-12-13T09:39:08;3.08;;;1.67;;
75021;SDS011;63583;49.976;20.182;2022-12-13T09:41:36;3.03;;;1.40;;
75021;SDS011;63583;49.976;20.182;2022-12-13T09:44:11;3.25;;;2.97;;
75021;SDS011;63583;49.976;20.182;2022-12-13T09:46:39;2.45;;;1.45;;
75021;SDS011;63583;49.976;20.182;2022-12-13T09:49:14;8.30;;;2.45;;
75021;SDS011;63583;49.976;20.182;2022-12-13T09:52:10;2.22;;;1.10;;
75021;SDS011;63583;49.976;20.182;2022-12-13T09:54:39;1.48;;;1.35;;
75021;SDS011;63583;49.976;20.182;2022-12-13T09:57:13;3.45;;;2.22;;
75021;SDS011;63583;49.976;20.182;2022-12-13T09:59:44;1.60;;;1.50;;
75021;SDS011;63583;49.976;20.182;2022-12-13T10:02:26;2.08;;;1.88;;
75021;SDS011;63583;49.976;20.182;2022-12-13T10:05:08;2.65;;;1.95;;
75021;SDS011;63583;49.976;20.182;2022-12-13T10:08:13;2.75;;;1.55;;
75021;SDS011;63583;49.976;20.182;2022-12-13T10:10:41;2.85;;;1.17;;
75021;SDS011;63583;49.976;20.182;2022-12-13T10:13:18;1.30;;;0.95;;
75021;SDS011;63583;49.976;20.182;2022-12-13T10:15:49;3.63;;;2.05;;
75021;SDS011;63583;49.976;20.182;2022-12-13T10:18:23;2.40;;;2.00;;
75021;SDS011;63583;49.976;20.182;2022-12-13T10:20:57;2.65;;;1.55;;
75021;SDS011;63583;49.976;20.182;2022-12-13T10:23:24;2.25;;;1.05;;
75021;SDS011;63583;49.976;20.182;2022-12-13T10:25:50;4.35;;;1.63;;
75021;SDS011;63583;49.976;20.182;2022-12-13T10:28:26;1.73;;;1.05;;
75021;SDS011;63583;49.976;20.182;2022-12-13T10:30:54;4.45;;;1.85;;
75021;SDS011;63583;49.976;20.182;2022-12-13T10:33:47;2.97;;;2.20;;
75021;SDS011;63583;49.976;20.182;2022-12-13T10:36:15;5.93;;;1.98;;
75021;SDS011;63583;49.976;20.182;2022-12-13T10:38:55;2.40;;;1.17;;
75021;SDS011;63583;49.976;20.182;2022-12-13T10:41:42;4.30;;;2.28;;
75021;SDS011;63583;49.976;20.182;2022-12-13T10:46:39;4.22;;;1.77;;
75021;SDS011;63583;49.976;20.182;2022-12-13T10:49:20;2.42;;;1.58;;
75021;SDS011;63583;49.976;20.182;2022-12-13T10:51:49;2.78;;;1.83;;
75021;SDS011;63583;49.976;20.182;2022-12-13T10:54:18;1.25;;;0.90;;
75021;SDS011;63583;49.976;20.182;2022-12-13T10:56:49;3.03;;;1.80;;
75021;SDS011;63583;49.976;20.182;2022-12-13T10:59:25;2.55;;;1.83;;
75021;SDS011;63583;49.976;20.182;2022-12-13T11:02:01;1.95;;;1.85;;
75021;SDS011;63583;49.976;20.182;2022-12-13T11:04:45;3.50;;;2.28;;
75021;SDS011;63583;49.976;20.182;2022-12-13T11:07:21;6.38;;;2.15;;
75021;SDS011;63583;49.976;20.182;2022-12-13T11:09:56;2.45;;;1.35;;
75021;SDS011;63583;49.976;20.182;2022-12-13T11:12:24;2.30;;;1.40;;
75021;SDS011;63583;49.976;20.182;2022-12-13T11:15:05;4.28;;;2.22;;
75021;SDS011;63583;49.976;20.182;2022-12-13T11:18:53;2.75;;;1.67;;
75021;SDS011;63583;49.976;20.182;2022-12-13T11:22:31;3.50;;;2.05;;
75021;SDS011;63583;49.976;20.182;2022-12-13T11:27:44;2.35;;;1.58;;
75021;SDS011;63583;49.976;20.182;2022-12-13T11:36:06;3.05;;;2.22;;
75021;SDS011;63583;49.976;20.182;2022-12-13T11:39:02;3.28;;;2.67;;
75021;SDS011;63583;49.976;20.182;2022-12-13T11:41:57;6.35;;;1.98;;
75021;SDS011;63583;49.976;20.182;2022-12-13T11:47:32;5.72;;;1.55;;
75021;SDS011;63583;49.976;20.182;2022-12-13T11:50:28;1.50;;;1.40;;
75021;SDS011;63583;49.976;20.182;2022-12-13T11:56:19;1.25;;;1.15;;
75021;SDS011;63583;49.976;20.182;2022-12-13T12:04:44;5.03;;;2.75;;
75021;SDS011;63583;49.976;20.182;2022-12-13T12:07:26;3.38;;;2.30;;
75021;SDS011;63583;49.976;20.182;2022-12-13T12:10:25;1.60;;;1.02;;
75021;SDS011;63583;49.976;20.182;2022-12-13T12:13:06;4.03;;;2.00;;
75021;SDS011;63583;49.976;20.182;2022-12-13T12:16:30;3.25;;;2.53;;
75021;SDS011;63583;49.976;20.182;2022-12-13T12:18:42;2.88;;;1.98;;
75021;SDS011;63583;49.976;20.182;2022-12-13T12:26:47;3.03;;;2.22;;
75021;SDS011;63583;49.976;20.182;2022-12-13T12:42:33;3.30;;;2.28;;
75021;SDS011;63583;49.976;20.182;2022-12-13T12:48:06;5.28;;;2.33;;
75021;SDS011;63583;49.976;20.182;2022-12-13T12:50:49;2.67;;;1.63;;
75021;SDS011;63583;49.976;20.182;2022-12-13T13:01:57;2.10;;;1.52;;
75021;SDS011;63583;49.976;20.182;2022-12-13T13:04:57;3.70;;;2.15;;
75021;SDS011;63583;49.976;20.182;2022-12-13T13:07:34;5.25;;;2.78;;
75021;SDS011;63583;49.976;20.182;2022-12-13T13:10:03;4.97;;;2.78;;
75021;SDS011;63583;49.976;20.182;2022-12-13T13:12:34;2.15;;;1.80;;
75021;SDS011;63583;49.976;20.182;2022-12-13T13:15:41;3.00;;;1.58;;
75021;SDS011;63583;49.976;20.182;2022-12-13T13:17:55;5.82;;;2.08;;
75021;SDS011;63583;49.976;20.182;2022-12-13T13:20:25;4.53;;;1.98;;
75021;SDS011;63583;49.976;20.182;2022-12-13T13:22:56;3.35;;;1.75;;
75021;SDS011;63583;49.976;20.182;2022-12-13T13:25:24;5.13;;;3.13;;
75021;SDS011;63583;49.976;20.182;2022-12-13T13:30:25;3.00;;;1.33;;
75021;SDS011;63583;49.976;20.182;2022-12-13T13:32:52;3.15;;;1.42;;
75021;SDS011;63583;49.976;20.182;2022-12-13T13:37:58;3.30;;;2.35;;
75021;SDS011;63583;49.976;20.182;2022-12-13T13:51:49;4.75;;;1.80;;
75021;SDS011;63583;49.976;20.182;2022-12-13T14:00:08;4.45;;;2.92;;
75021;SDS011;63583;49.976;20.182;2022-12-13T14:08:48;0.85;;;0.75;;
75021;SDS011;63583;49.976;20.182;2022-12-13T14:11:39;2.35;;;1.98;;
75021;SDS011;63583;49.976;20.182;2022-12-13T14:20:02;4.78;;;2.05;;
75021;SDS011;63583;49.976;20.182;2022-12-13T14:22:56;6.88;;;2.25;;
75021;SDS011;63583;49.976;20.182;2022-12-13T14:29:09;7.30;;;3.00;;
75021;SDS011;63583;49.976;20.182;2022-12-13T14:31:40;7.90;;;3.95;;
75021;SDS011;63583;49.976;20.182;2022-12-13T14:36:41;3.97;;;1.67;;
75021;SDS011;63583;49.976;20.182;2022-12-13T14:39:14;1.38;;;1.10;;
75021;SDS011;63583;49.976;20.182;2022-12-13T14:41:47;2.58;;;1.88;;
75021;SDS011;63583;49.976;20.182;2022-12-13T14:44:36;7.28;;;3.95;;
75021;SDS011;63583;49.976;20.182;2022-12-13T14:47:04;5.70;;;2.65;;
75021;SDS011;63583;49.976;20.182;2022-12-13T14:49:33;1.98;;;0.95;;
75021;SDS011;63583;49.976;20.182;2022-12-13T14:52:04;3.47;;;3.20;;
75021;SDS011;63583;49.976;20.182;2022-12-13T14:57:19;2.70;;;2.25;;
75021;SDS011;63583;49.976;20.182;2022-12-13T14:59:47;4.60;;;3.33;;
75021;SDS011;63583;49.976;20.182;2022-12-13T15:02:16;3.35;;;2.30;;
75021;SDS011;63583;49.976;20.182;2022-12-13T15:04:44;4.47;;;2.65;;
75021;SDS011;63583;49.976;20.182;2022-12-13T15:07:14;2.92;;;2.35;;
75021;SDS011;63583;49.976;20.182;2022-12-13T15:09:51;4.20;;;3.25;;
75021;SDS011;63583;49.976;20.182;2022-12-13T15:12:19;3.92;;;2.28;;
75021;SDS011;63583;49.976;20.182;2022-12-13T15:14:48;3.35;;;2.13;;
75021;SDS011;63583;49.976;20.182;2022-12-13T15:17:27;3.85;;;3.25;;
75021;SDS011;63583;49.976;20.182;2022-12-13T15:19:56;4.05;;;2.33;;
75021;SDS011;63583;49.976;20.182;2022-12-13T15:22:22;10.00;;;3.70;;
75021;SDS011;63583;49.976;20.182;2022-12-13T15:24:48;7.30;;;4.93;;
75021;SDS011;63583;49.976;20.182;2022-12-13T15:27:15;8.25;;;4.32;;
75021;SDS011;63583;49.976;20.182;2022-12-13T15:29:43;8.48;;;5.13;;
75021;SDS011;63583;49.976;20.182;2022-12-13T15:32:15;12.35;;;7.13;;
75021;SDS011;63583;49.976;20.182;2022-12-13T15:34:44;10.43;;;5.30;;
75021;SDS011;63583;49.976;20.182;2022-12-13T15:37:23;8.73;;;5.78;;
75021;SDS011;63583;49.976;20.182;2022-12-13T15:39:54;7.05;;;4.70;;
75021;SDS011;63583;49.976;20.182;2022-12-13T15:42:28;8.95;;;4.93;;
75021;SDS011;63583;49.976;20.182;2022-12-13T15:45:02;6.40;;;3.17;;
75021;SDS011;63583;49.976;20.182;2022-12-13T15:47:32;5.85;;;3.63;;
75021;SDS011;63583;49.976;20.182;2022-12-13T15:50:00;4.85;;;4.00;;
75021;SDS011;63583;49.976;20.182;2022-12-13T15:52:46;9.80;;;5.07;;
75021;SDS011;63583;49.976;20.182;2022-12-13T15:57:48;7.35;;;3.15;;
75021;SDS011;63583;49.976;20.182;2022-12-13T16:02:49;4.10;;;3.13;;
75021;SDS011;63583;49.976;20.182;2022-12-13T16:10:17;6.07;;;3.75;;
75021;SDS011;63583;49.976;20.182;2022-12-13T16:12:48;4.63;;;3.35;;
75021;SDS011;63583;49.976;20.182;2022-12-13T16:17:55;1.90;;;1.80;;
75021;SDS011;63583;49.976;20.182;2022-12-13T16:20:30;5.22;;;3.75;;
75021;SDS011;63583;49.976;20.182;2022-12-13T16:22:56;7.40;;;4.70;;
75021;SDS011;63583;49.976;20.182;2022-12-13T16:25:22;5.80;;;3.30;;
75021;SDS011;63583;49.976;20.182;2022-12-13T16:27:47;2.75;;;2.22;;
75021;SDS011;63583;49.976;20.182;2022-12-13T16:30:24;6.07;;;3.15;;
75021;SDS011;63583;49.976;20.182;2022-12-13T16:32:52;4.30;;;2.75;;
75021;SDS011;63583;49.976;20.182;2022-12-13T16:35:18;8.98;;;3.75;;
75021;SDS011;63583;49.976;20.182;2022-12-13T16:37:45;10.23;;;4.95;;
75021;SDS011;63583;49.976;20.182;2022-12-13T16:40:23;10.30;;;5.15;;
75021;SDS011;63583;49.976;20.182;2022-12-13T16:42:55;14.15;;;8.15;;
75021;SDS011;63583;49.976;20.182;2022-12-13T16:45:23;20.98;;;8.57;;
75021;SDS011;63583;49.976;20.182;2022-12-13T16:47:49;13.38;;;6.35;;
75021;SDS011;63583;49.976;20.182;2022-12-13T16:50:16;9.70;;;5.78;;
75021;SDS011;63583;49.976;20.182;2022-12-13T16:52:43;6.50;;;4.30;;
75021;SDS011;63583;49.976;20.182;2022-12-13T16:55:10;6.60;;;4.50;;
75021;SDS011;63583;49.976;20.182;2022-12-13T16:57:36;3.22;;;2.55;;
75021;SDS011;63583;49.976;20.182;2022-12-13T17:00:03;9.95;;;3.05;;
75021;SDS011;63583;49.976;20.182;2022-12-13T17:02:30;9.68;;;6.38;;
75021;SDS011;63583;49.976;20.182;2022-12-13T17:04:56;20.58;;;10.57;;
75021;SDS011;63583;49.976;20.182;2022-12-13T17:07:22;13.27;;;8.65;;
75021;SDS011;63583;49.976;20.182;2022-12-13T17:09:48;12.52;;;4.90;;